sensor_id;sensor_type;location;lat;lon;timestamp;P1;durP1;ratioP1;P2;durP2;ratioP2
30420;SDS011;17218;54.070;10.012;2022-10-18T00:00:31;10.50;;;9.38;;
30420;SDS011;17218;54.070;10.012;2022-10-18T00:02:57;15.38;;;9.15;;
30420;SDS011;17218;54.070;10.012;2022-10-18T00:05:24;14.60;;;10.07;;
30420;SDS011;17218;54.070;10.012;2022-10-18T00:07:50;14.88;;;9.05;;
30420;SDS011;17218;54.070;10.012;2022-10-18T00:10:17;16.05;;;9.55;;
30420;SDS011;17218;54.070;10.012;2022-10-18T00:12:43;16.00;;;10.38;;
30420;SDS011;17218;54.070;10.012;2022-10-18T00:15:10;14.52;;;9.52;;
30420;SDS011;17218;54.070;10.012;2022-10-18T00:17:38;10.70;;;9.60;;
30420;SDS011;17218;54.070;10.012;2022-10-18T00:20:05;14.10;;;10.40;;
30420;SDS011;17218;54.070;10.012;2022-10-18T00:22:33;13.85;;;9.88;;
30420;SDS011;17218;54.070;10.012;2022-10-18T00:24:59;16.05;;;10.60;;
30420;SDS011;17218;54.070;10.012;2022-10-18T00:27:27;11.23;;;10.02;;
30420;SDS011;17218;54.070;10.012;2022-10-18T00:29:53;19.40;;;10.60;;
30420;SDS011;17218;54.070;10.012;2022-10-18T00:32:20;13.77;;;10.70;;
30420;SDS011;17218;54.070;10.012;2022-10-18T00:34:48;14.93;;;11.95;;
30420;SDS011;17218;54.070;10.012;2022-10-18T00:37:14;16.65;;;11.40;;
30420;SDS011;17218;54.070;10.012;2022-10-18T00:39:41;15.52;;;12.00;;
30420;SDS011;17218;54.070;10.012;2022-10-18T00:42:09;16.05;;;11.52;;
30420;SDS011;17218;54.070;10.012;2022-10-18T00:47:28;14.88;;;11.55;;
30420;SDS011;17218;54.070;10.012;2022-10-18T00:49:57;16.23;;;10.35;;
30420;SDS011;17218;54.070;10.012;2022-10-18T00:52:29;15.23;;;12.18;;
30420;SDS011;17218;54.070;10.012;2022-10-18T00:55:00;16.50;;;11.85;;
30420;SDS011;17218;54.070;10.012;2022-10-18T00:57:28;16.63;;;12.75;;
30420;SDS011;17218;54.070;10.012;2022-10-18T00:59:55;18.38;;;13.45;;
30420;SDS011;17218;54.070;10.012;2022-10-18T01:02:21;16.40;;;12.93;;
30420;SDS011;17218;54.070;10.012;2022-10-18T01:04:49;19.60;;;12.70;;
30420;SDS011;17218;54.070;10.012;2022-10-18T01:07:22;17.40;;;11.65;;
30420;SDS011;17218;54.070;10.012;2022-10-18T01:18:02;19.98;;;12.88;;
30420;SDS011;17218;54.070;10.012;2022-10-18T01:23:35;21.92;;;13.05;;
30420;SDS011;17218;54.070;10.012;2022-10-18T01:26:28;19.40;;;13.32;;
30420;SDS011;17218;54.070;10.012;2022-10-18T01:29:08;16.30;;;13.90;;
30420;SDS011;17218;54.070;10.012;2022-10-18T01:31:44;18.38;;;14.07;;
30420;SDS011;17218;54.070;10.012;2022-10-18T01:34:13;22.42;;;14.00;;
30420;SDS011;17218;54.070;10.012;2022-10-18T01:36:44;22.15;;;14.90;;
30420;SDS011;17218;54.070;10.012;2022-10-18T01:39:14;28.60;;;15.93;;
30420;SDS011;17218;54.070;10.012;2022-10-18T01:41:44;21.48;;;14.45;;
30420;SDS011;17218;54.070;10.012;2022-10-18T01:44:14;23.50;;;14.43;;
30420;SDS011;17218;54.070;10.012;2022-10-18T01:46:47;21.23;;;14.68;;
30420;SDS011;17218;54.070;10.012;2022-10-18T01:49:16;24.10;;;15.82;;
30420;SDS011;17218;54.070;10.012;2022-10-18T01:51:42;24.38;;;15.00;;
30420;SDS011;17218;54.070;10.012;2022-10-18T01:54:09;24.90;;;15.07;;
30420;SDS011;17218;54.070;10.012;2022-10-18T01:56:40;27.45;;;15.55;;
30420;SDS011;17218;54.070;10.012;2022-10-18T02:02:08;24.27;;;15.80;;
30420;SDS011;17218;54.070;10.012;2022-10-18T02:04:45;21.52;;;16.15;;
30420;SDS011;17218;54.070;10.012;2022-10-18T02:07:21;21.17;;;14.90;;
30420;SDS011;17218;54.070;10.012;2022-10-18T02:09:57;19.30;;;14.00;;
30420;SDS011;17218;54.070;10.012;2022-10-18T02:12:28;17.17;;;13.63;;
30420;SDS011;17218;54.070;10.012;2022-10-18T02:14:58;21.15;;;14.65;;
30420;SDS011;17218;54.070;10.012;2022-10-18T02:17:28;21.73;;;15.00;;
30420;SDS011;17218;54.070;10.012;2022-10-18T02:19:55;18.92;;;15.43;;
30420;SDS011;17218;54.070;10.012;2022-10-18T02:22:24;16.60;;;14.75;;
30420;SDS011;17218;54.070;10.012;2022-10-18T02:24:54;25.17;;;17.58;;
30420;SDS011;17218;54.070;10.012;2022-10-18T02:27:22;24.88;;;16.92;;
30420;SDS011;17218;54.070;10.012;2022-10-18T02:29:49;25.55;;;17.95;;
30420;SDS011;17218;54.070;10.012;2022-10-18T02:32:18;26.75;;;18.85;;
30420;SDS011;17218;54.070;10.012;2022-10-18T02:34:55;21.83;;;17.05;;
30420;SDS011;17218;54.070;10.012;2022-10-18T02:37:24;24.45;;;17.00;;
30420;SDS011;17218;54.070;10.012;2022-10-18T02:39:55;27.85;;;18.35;;
30420;SDS011;17218;54.070;10.012;2022-10-18T02:42:22;27.02;;;18.83;;
30420;SDS011;17218;54.070;10.012;2022-10-18T02:44:48;35.58;;;19.63;;
30420;SDS011;17218;54.070;10.012;2022-10-18T02:47:14;27.58;;;18.67;;
30420;SDS011;17218;54.070;10.012;2022-10-18T02:49:41;25.48;;;18.77;;
30420;SDS011;17218;54.070;10.012;2022-10-18T02:52:09;29.60;;;20.55;;
30420;SDS011;17218;54.070;10.012;2022-10-18T02:54:35;30.52;;;20.55;;
30420;SDS011;17218;54.070;10.012;2022-10-18T02:57:02;37.38;;;21.05;;
30420;SDS011;17218;54.070;10.012;2022-10-18T02:59:28;34.83;;;21.90;;
30420;SDS011;17218;54.070;10.012;2022-10-18T03:01:55;30.20;;;21.33;;
30420;SDS011;17218;54.070;10.012;2022-10-18T03:04:21;34.20;;;21.80;;
30420;SDS011;17218;54.070;10.012;2022-10-18T03:06:48;37.75;;;23.30;;
30420;SDS011;17218;54.070;10.012;2022-10-18T03:11:50;35.40;;;22.90;;
30420;SDS011;17218;54.070;10.012;2022-10-18T03:14:16;33.70;;;22.13;;
30420;SDS011;17218;54.070;10.012;2022-10-18T03:16:43;33.63;;;22.73;;
30420;SDS011;17218;54.070;10.012;2022-10-18T03:19:09;34.97;;;21.73;;
30420;SDS011;17218;54.070;10.012;2022-10-18T03:21:36;34.85;;;21.90;;
30420;SDS011;17218;54.070;10.012;2022-10-18T03:24:02;36.67;;;23.17;;
30420;SDS011;17218;54.070;10.012;2022-10-18T03:26:29;37.05;;;22.42;;
30420;SDS011;17218;54.070;10.012;2022-10-18T03:28:57;32.92;;;21.02;;
30420;SDS011;17218;54.070;10.012;2022-10-18T03:31:24;31.25;;;21.10;;
30420;SDS011;17218;54.070;10.012;2022-10-18T03:33:50;28.25;;;20.23;;
30420;SDS011;17218;54.070;10.012;2022-10-18T03:36:17;29.50;;;19.73;;
30420;SDS011;17218;54.070;10.012;2022-10-18T03:38:43;27.60;;;19.20;;
30420;SDS011;17218;54.070;10.012;2022-10-18T03:54:06;31.02;;;20.58;;
30420;SDS011;17218;54.070;10.012;2022-10-18T03:56:33;29.77;;;19.27;;
30420;SDS011;17218;54.070;10.012;2022-10-18T04:01:27;25.92;;;19.05;;
30420;SDS011;17218;54.070;10.012;2022-10-18T04:03:53;31.00;;;19.33;;
30420;SDS011;17218;54.070;10.012;2022-10-18T04:06:20;28.65;;;19.40;;
30420;SDS011;17218;54.070;10.012;2022-10-18T04:08:46;31.48;;;20.17;;
30420;SDS011;17218;54.070;10.012;2022-10-18T04:11:14;27.92;;;19.15;;
30420;SDS011;17218;54.070;10.012;2022-10-18T04:13:41;26.52;;;18.85;;
30420;SDS011;17218;54.070;10.012;2022-10-18T04:16:07;34.08;;;20.73;;
30420;SDS011;17218;54.070;10.012;2022-10-18T04:18:33;32.08;;;19.08;;
30420;SDS011;17218;54.070;10.012;2022-10-18T04:21:00;23.10;;;17.70;;
30420;SDS011;17218;54.070;10.012;2022-10-18T04:23:26;33.45;;;19.17;;
30420;SDS011;17218;54.070;10.012;2022-10-18T04:25:53;28.50;;;18.15;;
30420;SDS011;17218;54.070;10.012;2022-10-18T04:28:21;29.63;;;18.30;;
30420;SDS011;17218;54.070;10.012;2022-10-18T04:30:48;25.88;;;16.88;;
30420;SDS011;17218;54.070;10.012;2022-10-18T04:33:15;26.52;;;17.77;;
30420;SDS011;17218;54.070;10.012;2022-10-18T04:35:41;26.05;;;17.52;;
30420;SDS011;17218;54.070;10.012;2022-10-18T04:38:08;24.90;;;16.52;;
30420;SDS011;17218;54.070;10.012;2022-10-18T04:40:34;25.05;;;17.52;;
30420;SDS011;17218;54.070;10.012;2022-10-18T04:43:02;23.50;;;15.68;;
30420;SDS011;17218;54.070;10.012;2022-10-18T04:45:30;26.48;;;17.65;;
30420;SDS011;17218;54.070;10.012;2022-10-18T04:47:56;27.17;;;17.25;;
30420;SDS011;17218;54.070;10.012;2022-10-18T04:50:23;23.33;;;17.40;;
30420;SDS011;17218;54.070;10.012;2022-10-18T04:52:49;31.98;;;17.60;;
30420;SDS011;17218;54.070;10.012;2022-10-18T04:55:17;32.65;;;19.52;;
30420;SDS011;17218;54.070;10.012;2022-10-18T04:57:44;31.48;;;18.63;;
30420;SDS011;17218;54.070;10.012;2022-10-18T05:00:11;29.63;;;20.30;;
30420;SDS011;17218;54.070;10.012;2022-10-18T05:02:39;32.90;;;18.50;;
30420;SDS011;17218;54.070;10.012;2022-10-18T05:05:06;34.70;;;18.67;;
30420;SDS011;17218;54.070;10.012;2022-10-18T05:07:33;30.92;;;19.30;;
30420;SDS011;17218;54.070;10.012;2022-10-18T05:09:59;33.88;;;19.98;;
30420;SDS011;17218;54.070;10.012;2022-10-18T05:12:26;33.60;;;19.15;;
30420;SDS011;17218;54.070;10.012;2022-10-18T05:14:52;30.27;;;19.95;;
30420;SDS011;17218;54.070;10.012;2022-10-18T05:17:18;35.28;;;19.17;;
30420;SDS011;17218;54.070;10.012;2022-10-18T05:19:46;36.60;;;21.10;;
30420;SDS011;17218;54.070;10.012;2022-10-18T05:22:13;35.20;;;20.33;;
30420;SDS011;17218;54.070;10.012;2022-10-18T05:24:39;32.90;;;21.27;;
30420;SDS011;17218;54.070;10.012;2022-10-18T05:27:06;36.72;;;21.85;;
30420;SDS011;17218;54.070;10.012;2022-10-18T05:29:34;42.30;;;22.20;;
30420;SDS011;17218;54.070;10.012;2022-10-18T05:32:00;39.20;;;21.13;;
30420;SDS011;17218;54.070;10.012;2022-10-18T05:34:30;43.35;;;22.88;;
30420;SDS011;17218;54.070;10.012;2022-10-18T05:36:58;41.63;;;23.33;;
30420;SDS011;17218;54.070;10.012;2022-10-18T05:39:27;41.03;;;22.05;;
30420;SDS011;17218;54.070;10.012;2022-10-18T05:41:59;35.88;;;23.08;;
30420;SDS011;17218;54.070;10.012;2022-10-18T05:44:26;38.80;;;22.00;;
30420;SDS011;17218;54.070;10.012;2022-10-18T05:46:52;39.20;;;21.25;;
30420;SDS011;17218;54.070;10.012;2022-10-18T05:51:54;39.50;;;21.63;;
30420;SDS011;17218;54.070;10.012;2022-10-18T05:54:22;34.20;;;20.23;;
30420;SDS011;17218;54.070;10.012;2022-10-18T05:56:49;44.90;;;21.73;;
30420;SDS011;17218;54.070;10.012;2022-10-18T05:59:15;36.72;;;22.20;;
30420;SDS011;17218;54.070;10.012;2022-10-18T06:01:42;36.70;;;20.48;;
30420;SDS011;17218;54.070;10.012;2022-10-18T06:04:09;33.28;;;21.27;;
30420;SDS011;17218;54.070;10.012;2022-10-18T06:06:36;32.13;;;20.85;;
30420;SDS011;17218;54.070;10.012;2022-10-18T06:09:03;37.15;;;20.30;;
30420;SDS011;17218;54.070;10.012;2022-10-18T06:11:33;36.78;;;20.60;;
30420;SDS011;17218;54.070;10.012;2022-10-18T06:14:00;34.80;;;20.30;;
30420;SDS011;17218;54.070;10.012;2022-10-18T06:16:27;42.67;;;21.65;;
30420;SDS011;17218;54.070;10.012;2022-10-18T06:18:54;36.58;;;19.48;;
30420;SDS011;17218;54.070;10.012;2022-10-18T06:21:23;41.10;;;23.20;;
30420;SDS011;17218;54.070;10.012;2022-10-18T06:23:51;37.65;;;21.02;;
30420;SDS011;17218;54.070;10.012;2022-10-18T06:26:19;42.75;;;21.00;;
30420;SDS011;17218;54.070;10.012;2022-10-18T06:28:47;34.90;;;19.48;;
30420;SDS011;17218;54.070;10.012;2022-10-18T06:31:14;40.47;;;20.45;;
30420;SDS011;17218;54.070;10.012;2022-10-18T06:33:40;39.97;;;22.00;;
30420;SDS011;17218;54.070;10.012;2022-10-18T06:36:09;41.03;;;22.02;;
30420;SDS011;17218;54.070;10.012;2022-10-18T06:38:37;36.35;;;19.23;;
30420;SDS011;17218;54.070;10.012;2022-10-18T06:41:04;40.13;;;21.50;;
30420;SDS011;17218;54.070;10.012;2022-10-18T06:43:31;38.13;;;21.33;;
30420;SDS011;17218;54.070;10.012;2022-10-18T06:45:59;43.80;;;21.38;;
30420;SDS011;17218;54.070;10.012;2022-10-18T06:48:27;35.65;;;20.67;;
30420;SDS011;17218;54.070;10.012;2022-10-18T06:50:54;38.05;;;21.55;;
30420;SDS011;17218;54.070;10.012;2022-10-18T06:53:21;40.05;;;20.92;;
30420;SDS011;17218;54.070;10.012;2022-10-18T06:55:48;32.15;;;19.92;;
30420;SDS011;17218;54.070;10.012;2022-10-18T06:58:15;36.88;;;21.48;;
30420;SDS011;17218;54.070;10.012;2022-10-18T07:00:41;31.58;;;20.30;;
30420;SDS011;17218;54.070;10.012;2022-10-18T07:03:10;33.22;;;19.85;;
30420;SDS011;17218;54.070;10.012;2022-10-18T07:05:37;38.00;;;19.75;;
30420;SDS011;17218;54.070;10.012;2022-10-18T07:08:03;34.35;;;19.92;;
30420;SDS011;17218;54.070;10.012;2022-10-18T07:10:30;35.92;;;20.20;;
30420;SDS011;17218;54.070;10.012;2022-10-18T07:12:56;39.17;;;20.33;;
30420;SDS011;17218;54.070;10.012;2022-10-18T07:15:23;39.58;;;20.48;;
30420;SDS011;17218;54.070;10.012;2022-10-18T07:17:49;37.03;;;20.35;;
30420;SDS011;17218;54.070;10.012;2022-10-18T07:20:17;30.55;;;19.67;;
30420;SDS011;17218;54.070;10.012;2022-10-18T07:22:44;34.47;;;20.77;;
30420;SDS011;17218;54.070;10.012;2022-10-18T07:25:10;35.17;;;19.58;;
30420;SDS011;17218;54.070;10.012;2022-10-18T07:27:37;36.15;;;19.52;;
30420;SDS011;17218;54.070;10.012;2022-10-18T07:30:04;39.65;;;19.75;;
30420;SDS011;17218;54.070;10.012;2022-10-18T07:32:32;33.92;;;18.75;;
30420;SDS011;17218;54.070;10.012;2022-10-18T07:34:58;35.30;;;19.00;;
30420;SDS011;17218;54.070;10.012;2022-10-18T07:37:27;32.30;;;17.50;;
30420;SDS011;17218;54.070;10.012;2022-10-18T07:39:55;35.10;;;19.65;;
30420;SDS011;17218;54.070;10.012;2022-10-18T07:42:21;30.05;;;18.23;;
30420;SDS011;17218;54.070;10.012;2022-10-18T07:44:48;34.00;;;18.63;;
30420;SDS011;17218;54.070;10.012;2022-10-18T07:47:14;31.67;;;18.15;;
30420;SDS011;17218;54.070;10.012;2022-10-18T07:49:41;29.45;;;17.70;;
30420;SDS011;17218;54.070;10.012;2022-10-18T07:52:07;31.83;;;17.52;;
30420;SDS011;17218;54.070;10.012;2022-10-18T07:54:35;29.60;;;17.58;;
30420;SDS011;17218;54.070;10.012;2022-10-18T07:57:02;28.10;;;16.48;;
30420;SDS011;17218;54.070;10.012;2022-10-18T07:59:29;30.50;;;17.23;;
30420;SDS011;17218;54.070;10.012;2022-10-18T08:01:55;32.22;;;16.35;;
30420;SDS011;17218;54.070;10.012;2022-10-18T08:04:22;26.75;;;16.70;;
30420;SDS011;17218;54.070;10.012;2022-10-18T08:06:48;30.80;;;15.50;;
30420;SDS011;17218;54.070;10.012;2022-10-18T08:09:14;27.52;;;16.20;;
30420;SDS011;17218;54.070;10.012;2022-10-18T08:11:42;30.27;;;15.32;;
30420;SDS011;17218;54.070;10.012;2022-10-18T08:14:09;25.83;;;15.55;;
30420;SDS011;17218;54.070;10.012;2022-10-18T08:16:35;30.95;;;15.27;;
30420;SDS011;17218;54.070;10.012;2022-10-18T08:19:02;29.85;;;15.43;;
30420;SDS011;17218;54.070;10.012;2022-10-18T08:21:28;25.48;;;12.90;;
30420;SDS011;17218;54.070;10.012;2022-10-18T08:23:55;26.30;;;14.38;;
30420;SDS011;17218;54.070;10.012;2022-10-18T08:26:21;27.13;;;14.20;;
30420;SDS011;17218;54.070;10.012;2022-10-18T08:28:49;28.20;;;14.95;;
30420;SDS011;17218;54.070;10.012;2022-10-18T08:31:16;28.20;;;13.75;;
30420;SDS011;17218;54.070;10.012;2022-10-18T08:33:44;24.70;;;13.95;;
30420;SDS011;17218;54.070;10.012;2022-10-18T08:36:11;27.67;;;14.75;;
30420;SDS011;17218;54.070;10.012;2022-10-18T08:38:40;29.33;;;14.40;;
30420;SDS011;17218;54.070;10.012;2022-10-18T08:41:18;25.95;;;14.80;;
30420;SDS011;17218;54.070;10.012;2022-10-18T08:44:03;24.42;;;14.07;;
30420;SDS011;17218;54.070;10.012;2022-10-18T08:46:34;27.58;;;13.50;;
30420;SDS011;17218;54.070;10.012;2022-10-18T08:49:03;27.08;;;13.52;;
30420;SDS011;17218;54.070;10.012;2022-10-18T08:51:36;33.63;;;14.73;;
30420;SDS011;17218;54.070;10.012;2022-10-18T08:54:09;24.17;;;13.27;;
30420;SDS011;17218;54.070;10.012;2022-10-18T08:56:37;25.60;;;13.40;;
30420;SDS011;17218;54.070;10.012;2022-10-18T08:59:09;32.45;;;13.43;;
30420;SDS011;17218;54.070;10.012;2022-10-18T09:01:38;23.08;;;13.18;;
30420;SDS011;17218;54.070;10.012;2022-10-18T09:04:17;34.08;;;13.32;;
30420;SDS011;17218;54.070;10.012;2022-10-18T09:07:00;28.90;;;12.88;;
30420;SDS011;17218;54.070;10.012;2022-10-18T09:09:40;25.00;;;13.80;;
30420;SDS011;17218;54.070;10.012;2022-10-18T09:12:18;30.40;;;13.43;;
30420;SDS011;17218;54.070;10.012;2022-10-18T09:15:02;26.83;;;13.40;;
30420;SDS011;17218;54.070;10.012;2022-10-18T09:17:40;24.52;;;13.77;;
30420;SDS011;17218;54.070;10.012;2022-10-18T09:20:21;23.05;;;13.48;;
30420;SDS011;17218;54.070;10.012;2022-10-18T09:22:53;34.28;;;14.57;;
30420;SDS011;17218;54.070;10.012;2022-10-18T09:25:22;26.80;;;14.45;;
30420;SDS011;17218;54.070;10.012;2022-10-18T09:27:51;24.35;;;14.02;;
30420;SDS011;17218;54.070;10.012;2022-10-18T09:30:25;29.00;;;13.25;;
30420;SDS011;17218;54.070;10.012;2022-10-18T09:33:06;22.00;;;12.02;;
30420;SDS011;17218;54.070;10.012;2022-10-18T09:35:47;25.63;;;12.15;;
30420;SDS011;17218;54.070;10.012;2022-10-18T09:38:18;22.70;;;12.85;;
30420;SDS011;17218;54.070;10.012;2022-10-18T09:40:50;23.40;;;11.85;;
30420;SDS011;17218;54.070;10.012;2022-10-18T09:43:20;27.00;;;12.95;;
30420;SDS011;17218;54.070;10.012;2022-10-18T09:45:51;20.63;;;12.25;;
30420;SDS011;17218;54.070;10.012;2022-10-18T09:48:20;23.55;;;11.63;;
30420;SDS011;17218;54.070;10.012;2022-10-18T09:50:53;20.80;;;11.35;;
30420;SDS011;17218;54.070;10.012;2022-10-18T09:53:25;23.98;;;10.55;;
30420;SDS011;17218;54.070;10.012;2022-10-18T09:56:00;22.23;;;10.38;;
30420;SDS011;17218;54.070;10.012;2022-10-18T09:58:34;18.88;;;9.95;;
30420;SDS011;17218;54.070;10.012;2022-10-18T10:01:07;20.83;;;9.93;;
30420;SDS011;17218;54.070;10.012;2022-10-18T10:03:36;26.30;;;9.75;;
30420;SDS011;17218;54.070;10.012;2022-10-18T10:06:15;20.92;;;8.63;;
30420;SDS011;17218;54.070;10.012;2022-10-18T10:08:48;15.95;;;8.43;;
30420;SDS011;17218;54.070;10.012;2022-10-18T10:11:31;24.17;;;7.75;;
30420;SDS011;17218;54.070;10.012;2022-10-18T10:14:06;13.55;;;8.27;;
30420;SDS011;17218;54.070;10.012;2022-10-18T10:16:42;18.75;;;8.90;;
30420;SDS011;17218;54.070;10.012;2022-10-18T10:19:18;23.58;;;9.48;;
30420;SDS011;17218;54.070;10.012;2022-10-18T10:21:48;19.63;;;7.85;;
30420;SDS011;17218;54.070;10.012;2022-10-18T10:24:24;16.55;;;7.70;;
30420;SDS011;17218;54.070;10.012;2022-10-18T10:26:58;16.63;;;7.15;;
30420;SDS011;17218;54.070;10.012;2022-10-18T10:29:37;13.00;;;6.22;;
30420;SDS011;17218;54.070;10.012;2022-10-18T10:32:19;13.73;;;5.38;;
30420;SDS011;17218;54.070;10.012;2022-10-18T10:34:47;12.45;;;5.53;;
30420;SDS011;17218;54.070;10.012;2022-10-18T10:37:22;12.98;;;5.05;;
30420;SDS011;17218;54.070;10.012;2022-10-18T10:45:50;11.02;;;3.10;;
30420;SDS011;17218;54.070;10.012;2022-10-18T10:48:23;10.50;;;3.28;;
30420;SDS011;17218;54.070;10.012;2022-10-18T10:50:52;10.13;;;2.95;;
30420;SDS011;17218;54.070;10.012;2022-10-18T10:56:05;16.17;;;3.42;;
30420;SDS011;17218;54.070;10.012;2022-10-18T10:58:40;10.88;;;3.30;;
30420;SDS011;17218;54.070;10.012;2022-10-18T11:01:21;9.65;;;2.70;;
30420;SDS011;17218;54.070;10.012;2022-10-18T11:03:52;5.32;;;1.85;;
30420;SDS011;17218;54.070;10.012;2022-10-18T11:06:30;11.02;;;2.78;;
30420;SDS011;17218;54.070;10.012;2022-10-18T11:11:38;12.30;;;3.42;;
30420;SDS011;17218;54.070;10.012;2022-10-18T11:14:12;10.50;;;2.45;;
30420;SDS011;17218;54.070;10.012;2022-10-18T11:16:48;9.82;;;2.75;;
30420;SDS011;17218;54.070;10.012;2022-10-18T11:19:27;9.13;;;2.83;;
30420;SDS011;17218;54.070;10.012;2022-10-18T11:21:59;10.57;;;2.45;;
30420;SDS011;17218;54.070;10.012;2022-10-18T11:24:29;7.80;;;2.25;;
30420;SDS011;17218;54.070;10.012;2022-10-18T11:26:57;9.18;;;2.47;;
30420;SDS011;17218;54.070;10.012;2022-10-18T11:32:07;9.10;;;2.22;;
30420;SDS011;17218;54.070;10.012;2022-10-18T11:34:54;8.32;;;2.78;;
30420;SDS011;17218;54.070;10.012;2022-10-18T11:37:32;8.50;;;2.50;;
30420;SDS011;17218;54.070;10.012;2022-10-18T11:42:46;8.50;;;2.70;;
30420;SDS011;17218;54.070;10.012;2022-10-18T11:45:23;7.65;;;2.60;;
30420;SDS011;17218;54.070;10.012;2022-10-18T11:48:02;7.63;;;2.80;;
30420;SDS011;17218;54.070;10.012;2022-10-18T11:50:39;9.98;;;2.72;;
30420;SDS011;17218;54.070;10.012;2022-10-18T11:53:15;6.75;;;2.33;;
30420;SDS011;17218;54.070;10.012;2022-10-18T11:55:54;9.00;;;2.20;;
30420;SDS011;17218;54.070;10.012;2022-10-18T11:58:33;7.57;;;2.72;;
30420;SDS011;17218;54.070;10.012;2022-10-18T12:01:10;11.65;;;2.90;;
30420;SDS011;17218;54.070;10.012;2022-10-18T12:03:51;6.88;;;2.03;;
30420;SDS011;17218;54.070;10.012;2022-10-18T12:06:27;6.45;;;2.25;;
30420;SDS011;17218;54.070;10.012;2022-10-18T12:08:58;7.28;;;1.83;;
30420;SDS011;17218;54.070;10.012;2022-10-18T12:11:29;9.02;;;2.15;;
30420;SDS011;17218;54.070;10.012;2022-10-18T12:13:58;6.72;;;2.13;;
30420;SDS011;17218;54.070;10.012;2022-10-18T12:16:28;6.25;;;2.33;;
30420;SDS011;17218;54.070;10.012;2022-10-18T12:18:58;6.38;;;2.00;;
30420;SDS011;17218;54.070;10.012;2022-10-18T12:21:29;8.73;;;2.67;;
30420;SDS011;17218;54.070;10.012;2022-10-18T12:23:58;7.90;;;1.92;;
30420;SDS011;17218;54.070;10.012;2022-10-18T12:26:28;7.80;;;2.00;;
30420;SDS011;17218;54.070;10.012;2022-10-18T12:28:59;10.10;;;2.55;;
30420;SDS011;17218;54.070;10.012;2022-10-18T12:31:33;6.82;;;1.95;;
30420;SDS011;17218;54.070;10.012;2022-10-18T12:34:22;8.43;;;2.80;;
30420;SDS011;17218;54.070;10.012;2022-10-18T12:37:02;5.20;;;1.67;;
30420;SDS011;17218;54.070;10.012;2022-10-18T12:39:40;8.93;;;2.78;;
30420;SDS011;17218;54.070;10.012;2022-10-18T12:42:15;11.93;;;2.03;;
30420;SDS011;17218;54.070;10.012;2022-10-18T12:44:44;6.93;;;2.13;;
30420;SDS011;17218;54.070;10.012;2022-10-18T12:47:19;5.78;;;2.25;;
30420;SDS011;17218;54.070;10.012;2022-10-18T12:49:54;8.40;;;2.78;;
30420;SDS011;17218;54.070;10.012;2022-10-18T12:52:24;9.10;;;2.22;;
30420;SDS011;17218;54.070;10.012;2022-10-18T12:55:00;9.05;;;1.85;;
30420;SDS011;17218;54.070;10.012;2022-10-18T13:03:41;7.88;;;2.08;;
30420;SDS011;17218;54.070;10.012;2022-10-18T13:06:17;7.43;;;1.98;;
30420;SDS011;17218;54.070;10.012;2022-10-18T13:08:45;7.22;;;2.40;;
30420;SDS011;17218;54.070;10.012;2022-10-18T13:11:31;8.93;;;2.35;;
30420;SDS011;17218;54.070;10.012;2022-10-18T13:14:11;9.18;;;2.45;;
30420;SDS011;17218;54.070;10.012;2022-10-18T13:17:00;5.63;;;1.85;;
30420;SDS011;17218;54.070;10.012;2022-10-18T13:19:33;6.43;;;2.33;;
30420;SDS011;17218;54.070;10.012;2022-10-18T13:22:12;7.07;;;1.90;;
30420;SDS011;17218;54.070;10.012;2022-10-18T13:24:56;5.95;;;2.20;;
30420;SDS011;17218;54.070;10.012;2022-10-18T13:27:30;8.15;;;1.88;;
30420;SDS011;17218;54.070;10.012;2022-10-18T13:30:14;4.38;;;1.98;;
30420;SDS011;17218;54.070;10.012;2022-10-18T13:32:52;7.95;;;2.30;;
30420;SDS011;17218;54.070;10.012;2022-10-18T13:35:44;7.68;;;2.47;;
30420;SDS011;17218;54.070;10.012;2022-10-18T13:38:25;7.97;;;1.88;;
30420;SDS011;17218;54.070;10.012;2022-10-18T13:41:02;5.53;;;2.22;;
30420;SDS011;17218;54.070;10.012;2022-10-18T13:49:46;4.55;;;1.58;;
30420;SDS011;17218;54.070;10.012;2022-10-18T13:52:20;9.07;;;1.92;;
30420;SDS011;17218;54.070;10.012;2022-10-18T13:54:59;7.53;;;2.05;;
30420;SDS011;17218;54.070;10.012;2022-10-18T13:57:44;6.60;;;1.90;;
30420;SDS011;17218;54.070;10.012;2022-10-18T14:00:25;8.10;;;1.75;;
30420;SDS011;17218;54.070;10.012;2022-10-18T14:03:10;7.28;;;1.80;;
30420;SDS011;17218;54.070;10.012;2022-10-18T14:06:00;7.38;;;2.05;;
30420;SDS011;17218;54.070;10.012;2022-10-18T14:08:32;9.18;;;2.13;;
30420;SDS011;17218;54.070;10.012;2022-10-18T14:11:02;6.35;;;2.15;;
30420;SDS011;17218;54.070;10.012;2022-10-18T14:13:35;5.18;;;1.55;;
30420;SDS011;17218;54.070;10.012;2022-10-18T14:16:23;8.23;;;2.15;;
30420;SDS011;17218;54.070;10.012;2022-10-18T14:18:56;8.25;;;1.70;;
30420;SDS011;17218;54.070;10.012;2022-10-18T14:21:31;9.82;;;2.05;;
30420;SDS011;17218;54.070;10.012;2022-10-18T14:24:06;7.80;;;1.50;;
30420;SDS011;17218;54.070;10.012;2022-10-18T14:26:40;7.40;;;1.90;;
30420;SDS011;17218;54.070;10.012;2022-10-18T14:29:15;13.30;;;1.85;;
30420;SDS011;17218;54.070;10.012;2022-10-18T14:31:47;7.28;;;1.45;;
30420;SDS011;17218;54.070;10.012;2022-10-18T14:34:17;9.35;;;1.73;;
30420;SDS011;17218;54.070;10.012;2022-10-18T14:36:44;8.35;;;1.75;;
30420;SDS011;17218;54.070;10.012;2022-10-18T14:39:16;7.38;;;1.67;;
30420;SDS011;17218;54.070;10.012;2022-10-18T14:41:48;7.30;;;1.50;;
30420;SDS011;17218;54.070;10.012;2022-10-18T14:44:18;6.40;;;1.75;;
30420;SDS011;17218;54.070;10.012;2022-10-18T14:46:46;5.82;;;1.67;;
30420;SDS011;17218;54.070;10.012;2022-10-18T14:49:15;8.10;;;2.10;;
30420;SDS011;17218;54.070;10.012;2022-10-18T14:51:43;8.95;;;1.98;;
30420;SDS011;17218;54.070;10.012;2022-10-18T14:54:13;5.38;;;1.60;;
30420;SDS011;17218;54.070;10.012;2022-10-18T14:56:41;9.00;;;1.92;;
30420;SDS011;17218;54.070;10.012;2022-10-18T14:59:10;6.20;;;1.98;;
30420;SDS011;17218;54.070;10.012;2022-10-18T15:01:49;10.43;;;2.50;;
30420;SDS011;17218;54.070;10.012;2022-10-18T15:04:18;4.70;;;1.33;;
30420;SDS011;17218;54.070;10.012;2022-10-18T15:06:45;7.10;;;1.95;;
30420;SDS011;17218;54.070;10.012;2022-10-18T15:09:14;12.02;;;1.90;;
30420;SDS011;17218;54.070;10.012;2022-10-18T15:11:45;6.60;;;2.17;;
30420;SDS011;17218;54.070;10.012;2022-10-18T15:14:13;8.02;;;1.70;;
30420;SDS011;17218;54.070;10.012;2022-10-18T15:16:42;5.90;;;1.70;;
30420;SDS011;17218;54.070;10.012;2022-10-18T15:19:26;6.18;;;1.63;;
30420;SDS011;17218;54.070;10.012;2022-10-18T15:21:56;9.52;;;1.92;;
30420;SDS011;17218;54.070;10.012;2022-10-18T15:24:28;7.32;;;1.80;;
30420;SDS011;17218;54.070;10.012;2022-10-18T15:26:58;8.95;;;1.90;;
30420;SDS011;17218;54.070;10.012;2022-10-18T15:29:29;9.70;;;2.05;;
30420;SDS011;17218;54.070;10.012;2022-10-18T15:32:04;8.13;;;1.65;;
30420;SDS011;17218;54.070;10.012;2022-10-18T15:34:39;3.83;;;1.30;;
30420;SDS011;17218;54.070;10.012;2022-10-18T15:37:14;4.95;;;1.40;;
30420;SDS011;17218;54.070;10.012;2022-10-18T15:42:58;6.93;;;1.20;;
30420;SDS011;17218;54.070;10.012;2022-10-18T15:45:30;3.85;;;1.20;;